Предлагаем Вашему вниманию английскую версию страницы: AUTOTAF.ME UNIQ - aviation weather forecast Yartsevo

AUTOTAF UNIQ - авиапрогноз Ярцево

Сегодня рассвет 01:38 UTC, восход солнца 02:27 UTC,
местный полдень 06:11 UTC, заход солнца 09:55 UTC,
наступление темноты 10:45 UTC.

Краткий прогноз UNIQ на 9 часов

AUTOTAF.ME UNIQ 262000Z 2621/2706 15006G14MPS CAVOK      
  BECMG 2704/2706 1500

Детальный прогноз UNIQ на 24 часа

AUTOTAF.ME UNIQ 262000Z 2621/2721 15006G14MPS 9999 BKN130 TXM29/2709Z TNM39/2621Z    
  BECMG 2704/2706 1500  
  BECMG 2707/2709 BLSN  
  FM271200 VRB02MPS 9999 SKC 
  FM271500 VRB02MPS 1000 BR SKC 
  FM271800 VRB02MPS 0500 FG IC SKC 
  FM272100 VRB02MPS 1000 BR SKC

Подробный табличный прогноз

Время (UTC) miniAUTOTAF на 3 ч WX FZLVL
M AGL
ICE TURB Т
(°С)
Тd
(°С)
f(%) QNH
(гПа)
WIND/T
18 15003MPS 9999 FEW180 SFC -40 -44 63 1042 ...
21 15006G14MPS 9999 BKN130 SFC -39 -43 61 1038 ...
27.01.2021
00 15007G16MPS 9999 BKN110 SFC MOD SFC/FL20 -37 -42 60 1034 ...
03 15008G17MPS 9999 OVC090 SFC FBL FL70/FL80 MOD SFC/FL30 -34 -39 59 1028 ...
06 16007G17MPS 1500 SKC SFC MOD SFC/FL40 -31 -36 61 1024 ...
09 16008G15MPS 1500 BLSN SKC BLSN SFC FBL FL90/FL110 MOD SFC/FL20 -29 -34 64 1020 ...
12 VRB02MPS 9999 SKC SFC MOD FL70/FL90 MOD SFC/FL20 -30 -34 71 1020 ...
15 VRB02MPS 1000 BR SKC BR SFC -32 -35 71 1020 ...
18 VRB02MPS 0500 FG IC SKC FG IC SFC -34 -37 70 1020 ...
21 VRB02MPS 1000 BR SKC BR SFC -35 -38 68 1021 ...
28.01.2021
00 VRB02MPS 1000 BR SKC BR SFC -36 -40 65 1024 ...
03 VRB02MPS 1000 BR SKC BR SFC -37 -41 65 1026 ...
06 VRB02MPS 9999 SKC SFC -36 -41 58 1028 ...
09 VRB02MPS 1000 BR SKC BR SFC -36 -41 57 1030 ...
12 VRB02MPS 0200 FG IC SKC FG IC SFC -38 -42 66 1031 ...
15 VRB02MPS 1000 BR FEW140 BR SFC -40 -44 66 1030 ...


Широта 60.25433°, долгота 90.19585°, высота 55 м абс.
Средняя высота рельефа местности 100 м абс.
Прогнозы обновляются четыре раза в сутки: в 02, 08, 14, 20 ч всемирного времени.


Выбрать прогноз по другой модели Ярцево
Онлайн-сводка гроз по Ярцево (для РФ и ближнего зарубежья)
Карта фактических гроз в окрестностях Ярцево
Динамические прогностические карты (ventusky.com)
Прогностическая карта высоты нижней границы облаков по Ярцево (windy.com)
Выбрать другой город

Прогноз предназначен для личного научно-познавательного использования частными лицами
и не предназначен для принятия важных решений и выполнения реальных полётов воздушных судов

При копировании или ином использовании любых материалов данного сайта ссылка на © meteocenter.asia обязательна.

0.67/1.1